Time;durP1;ratioP1;P1;durP2;ratioP2;P2;SDS_P1;SDS_P2;PMS_P1;PMS_P2;Temp;Humidity;BMP_temperature;BMP_pressure;BME280_temperature;BME280_humidity;BME280_pressure;Samples;Min_cycle;Max_cycle;Signal;HPM_P1;HPM_P2
2023/02/03 00:01:28;;;;;;;;;;;;;;;25.84;38.96;95601.34;4999507;28;8824;-62
2023/02/03 00:03:54;;;;;;;;;;;;;;;25.83;38.56;95613.63;5002756;28;7256;-63
2023/02/03 00:06:20;;;;;;;;;;;;;;;25.83;38.75;95608.88;5004472;28;7264;-62
2023/02/03 00:08:49;;;;;;;;;;;;;;;25.84;38.69;95604.09;4989662;28;9073;-62
2023/02/03 00:11:15;;;;;;;;;;;;;;;25.82;38.55;95604.59;4994781;28;7332;-62
2023/02/03 00:13:41;;;;;;;;;;;;;;;25.79;39.05;95602.03;4997724;28;9101;-62
2023/02/03 00:16:07;;;;;;;;;;;;;;;25.83;38.17;95608.09;5005159;28;8981;-62
2023/02/03 00:18:33;;;;;;;;;;;;;;;25.81;38.38;95610.59;4995342;28;8794;-62
2023/02/03 00:20:59;;;;;;;;;;;;;;;25.85;39.10;95609.13;4990344;28;8745;-63
2023/02/03 00:23:25;;;;;;;;;;;;;;;25.83;38.32;95608.88;5017453;28;7054;-63
2023/02/03 00:25:52;;;;;;;;;;;;;;;25.83;38.49;95606.09;5001632;28;7271;-62
2023/02/03 00:28:23;;;;;;;;;;;;;;;25.83;39.06;95608.09;5010833;28;7152;-62
2023/02/03 00:30:52;;;;;;;;;;;;;;;25.82;38.97;95593.56;5005920;28;9386;-62
2023/02/03 00:33:18;;;;;;;;;;;;;;;25.82;37.93;95595.53;5000533;28;9156;-62
2023/02/03 00:35:44;;;;;;;;;;;;;;;25.82;38.22;95593.56;5016959;28;8665;-62
2023/02/03 00:38:10;;;;;;;;;;;;;;;25.81;38.44;95586.53;4999180;28;7698;-63
2023/02/03 00:40:36;;;;;;;;;;;;;;;25.82;38.56;95590.03;5001852;28;7566;-62
2023/02/03 00:43:23;;;;;;;;;;;;;;;25.81;38.09;95592.06;5009370;28;9131;-62
2023/02/03 00:45:50;;;;;;;;;;;;;;;25.80;38.17;95598.78;4998534;28;7289;-63
2023/02/03 00:48:19;;;;;;;;;;;;;;;25.81;38.91;95597.56;5012196;28;7885;-63
2023/02/03 00:50:58;;;;;;;;;;;;;;;25.82;39.17;95595.53;5013449;28;9286;-63
2023/02/03 00:53:24;;;;;;;;;;;;;;;25.81;38.18;95600.31;5011915;28;7270;-63
2023/02/03 00:55:59;;;;;;;;;;;;;;;25.79;38.67;95602.03;5015783;28;8688;-63
2023/02/03 00:58:39;;;;;;;;;;;;;;;25.81;38.76;95616.88;5007282;28;6995;-63
2023/02/03 01:01:07;;;;;;;;;;;;;;;25.80;38.40;95629.13;5024453;28;7657;-63
2023/02/03 01:03:38;;;;;;;;;;;;;;;25.81;38.57;95632.63;5009451;28;9037;-62
2023/02/03 01:06:25;;;;;;;;;;;;;;;25.81;38.07;95638.91;5000752;28;9206;-62
2023/02/03 01:08:56;;;;;;;;;;;;;;;25.82;38.40;95640.41;5006959;28;8546;-62
2023/02/03 01:12:03;;;;;;;;;;;;;;;25.80;38.82;95637.38;5012525;28;7192;-62
2023/02/03 01:14:29;;;;;;;;;;;;;;;25.79;38.91;95630.38;4997253;28;8703;-63
2023/02/03 01:17:12;;;;;;;;;;;;;;;25.79;38.67;95633.13;5009639;28;8648;-67
2023/02/03 01:19:51;;;;;;;;;;;;;;;25.78;38.83;95634.34;5000068;28;7215;-67
2023/02/03 01:22:38;;;;;;;;;;;;;;;25.78;37.96;95639.88;5008472;28;7261;-57
2023/02/03 01:25:25;;;;;;;;;;;;;;;25.78;38.95;95648.13;5010367;28;9213;-57
2023/02/03 01:27:51;;;;;;;;;;;;;;;25.79;38.92;95646.91;5000232;28;7114;-57
2023/02/03 01:30:26;;;;;;;;;;;;;;;25.76;38.45;95642.34;5020347;28;7488;-57
2023/02/03 01:32:52;;;;;;;;;;;;;;;25.75;38.80;95635.31;5004411;28;7267;-57
2023/02/03 01:35:45;;;;;;;;;;;;;;;25.77;38.63;95643.09;5003177;28;7319;-57
2023/02/03 01:39:05;;;;;;;;;;;;;;;25.76;38.17;95645.09;4970152;28;9037;-57
2023/02/03 01:41:53;;;;;;;;;;;;;;;25.76;38.28;95649.84;4972718;28;9241;-57
2023/02/03 01:44:51;;;;;;;;;;;;;;;25.76;39.00;95650.63;4960052;28;7248;-57
2023/02/03 01:47:56;;;;;;;;;;;;;;;25.77;37.98;95654.91;4951148;28;9501;-67
2023/02/03 01:50:35;;;;;;;;;;;;;;;25.76;38.51;95645.09;4952621;28;9032;-67
2023/02/03 01:53:07;;;;;;;;;;;;;;;25.76;38.52;95653.38;4969163;28;7288;-57
2023/02/03 01:55:51;;;;;;;;;;;;;;;25.76;39.03;95652.59;4955742;28;7095;-57
2023/02/03 01:58:28;;;;;;;;;;;;;;;25.78;37.93;95652.88;4955599;28;9253;-57
2023/02/03 02:01:25;;;;;;;;;;;;;;;25.75;39.06;95649.09;4972120;28;7123;-57
2023/02/03 02:03:58;;;;;;;;;;;;;;;25.75;38.31;95638.06;4967510;28;7667;-57
2023/02/03 02:07:04;;;;;;;;;;;;;;;25.77;38.20;95652.13;4951932;28;7649;-57
2023/02/03 02:09:48;;;;;;;;;;;;;;;25.77;38.70;95660.41;4952216;28;9747;-62
2023/02/03 02:12:13;;;;;;;;;;;;;;;25.78;38.53;95650.13;4951008;28;7291;-63
2023/02/03 02:14:47;;;;;;;;;;;;;;;25.79;38.33;95651.66;4975671;28;9076;-63
2023/02/03 02:17:50;;;;;;;;;;;;;;;25.79;39.01;95657.16;5008997;28;7256;-62
2023/02/03 02:20:55;;;;;;;;;;;;;;;25.78;39.01;95655.63;5004447;28;7275;-62
2023/02/03 02:23:37;;;;;;;;;;;;;;;25.76;38.36;95658.88;4990049;28;6996;-62
2023/02/03 02:26:41;;;;;;;;;;;;;;;25.74;38.94;95660.59;5014566;28;9282;-62
2023/02/03 02:29:07;;;;;;;;;;;;;;;25.77;39.06;95676.94;5015631;28;9000;-62
2023/02/03 02:31:57;;;;;;;;;;;;;;;25.76;38.21;95683.69;4994174;28;9194;-63
2023/02/03 02:34:33;;;;;;;;;;;;;;;25.76;38.38;95696.69;5009856;28;9399;-62
2023/02/03 02:37:48;;;;;;;;;;;;;;;25.76;37.92;95685.66;4997582;28;7148;-62
2023/02/03 02:40:33;;;;;;;;;;;;;;;25.75;38.94;95673.88;4995116;28;7489;-62
2023/02/03 02:43:37;;;;;;;;;;;;;;;25.75;38.60;95671.13;4993656;28;7272;-61
2023/02/03 02:46:34;;;;;;;;;;;;;;;25.74;38.40;95664.13;4932162;28;7365;-61
2023/02/03 02:49:40;;;;;;;;;;;;;;;25.75;38.31;95651.09;4867205;29;8809;-62
2023/02/03 02:52:13;;;;;;;;;;;;;;;25.75;38.60;95640.81;4843164;29;7045;-61
2023/02/03 02:55:26;;;;;;;;;;;;;;;25.74;38.25;95631.03;4837480;29;7277;-61
2023/02/03 02:58:04;;;;;;;;;;;;;;;25.74;38.47;95631.03;4823447;29;8762;-61
2023/02/03 03:00:40;;;;;;;;;;;;;;;25.74;38.46;95628.28;4820999;29;9459;-61
2023/02/03 03:03:23;;;;;;;;;;;;;;;25.72;38.46;95608.72;4835393;29;7169;-62
2023/02/03 03:06:39;;;;;;;;;;;;;;;25.73;38.94;95599.19;4840663;29;7215;-61
2023/02/03 03:09:23;;;;;;;;;;;;;;;25.72;38.18;95602.44;4799066;29;7043;-62
2023/02/03 03:12:10;;;;;;;;;;;;;;;25.73;38.22;95604.72;4772894;29;7048;-62
2023/02/03 03:14:45;;;;;;;;;;;;;;;25.72;38.52;95605.97;4785062;29;7035;-62
2023/02/03 03:17:23;;;;;;;;;;;;;;;25.70;38.59;95602.94;4772587;29;7026;-62
2023/02/03 03:19:56;;;;;;;;;;;;;;;25.73;38.23;95601.22;4793291;29;8615;-61
2023/02/03 03:22:35;;;;;;;;;;;;;;;25.75;38.54;95613.25;4814323;29;7031;-61
2023/02/03 03:25:18;;;;;;;;;;;;;;;25.75;38.48;95602.22;4833514;29;7862;-61
2023/02/03 03:27:54;;;;;;;;;;;;;;;25.69;38.92;95582.13;4904503;28;9663;-62
2023/02/03 03:30:28;;;;;;;;;;;;;;;25.75;38.30;95591.22;4938492;28;9055;-62
2023/02/03 03:32:57;;;;;;;;;;;;;;;25.74;38.80;95597.22;4953357;28;9192;-62
2023/02/03 03:35:31;;;;;;;;;;;;;;;25.73;38.44;95604.72;4935149;28;9077;-61
2023/02/03 03:38:12;;;;;;;;;;;;;;;25.71;38.56;95587.19;4957112;28;9056;-62
2023/02/03 03:40:47;;;;;;;;;;;;;;;25.71;38.44;95590.66;4945939;28;8794;-62
2023/02/03 03:43:19;;;;;;;;;;;;;;;25.72;38.68;95594.94;4946469;28;9011;-62
2023/02/03 03:46:12;;;;;;;;;;;;;;;25.74;38.57;95594.47;4991469;28;6978;-62
2023/02/03 03:48:57;;;;;;;;;;;;;;;25.74;38.73;95586.19;4995062;28;7338;-66
2023/02/03 03:51:48;;;;;;;;;;;;;;;25.73;38.37;95566.13;4999331;28;8941;-66
2023/02/03 03:54:19;;;;;;;;;;;;;;;25.73;38.22;95560.63;4994736;28;8954;-66
2023/02/03 03:57:01;;;;;;;;;;;;;;;25.74;38.29;95562.16;4989602;28;7222;-66
2023/02/03 03:59:33;;;;;;;;;;;;;;;25.72;38.46;95561.88;5002167;28;7246;-66
2023/02/03 04:02:03;;;;;;;;;;;;;;;25.70;38.61;95556.09;4998881;28;7034;-57
2023/02/03 04:04:36;;;;;;;;;;;;;;;25.71;38.28;95571.38;4998889;28;9150;-57
2023/02/03 04:07:04;;;;;;;;;;;;;;;25.70;38.77;95575.38;5009774;28;7129;-67
2023/02/03 04:09:38;;;;;;;;;;;;;;;25.70;38.75;95586.41;5002370;28;7203;-67
2023/02/03 04:12:22;;;;;;;;;;;;;;;25.71;38.98;95587.19;5015693;28;7356;-67
2023/02/03 04:14:48;;;;;;;;;;;;;;;25.68;38.43;95585.38;5011938;28;8730;-67
2023/02/03 04:17:14;;;;;;;;;;;;;;;25.69;38.78;95570.34;5001910;28;9134;-67
2023/02/03 04:19:42;;;;;;;;;;;;;;;25.69;38.94;95565.59;5007785;28;8804;-67
2023/02/03 04:22:08;;;;;;;;;;;;;;;25.69;38.19;95573.09;4997362;28;7248;-65
2023/02/03 04:24:34;;;;;;;;;;;;;;;25.68;38.11;95566.84;5008690;28;9195;-66
2023/02/03 04:27:02;;;;;;;;;;;;;;;25.69;38.48;95578.59;5018321;28;7237;-66
2023/02/03 04:29:28;;;;;;;;;;;;;;;25.67;37.94;95561.81;4999694;28;7108;-66
2023/02/03 04:31:56;;;;;;;;;;;;;;;25.72;38.44;95545.34;5008965;28;8887;-67
2023/02/03 04:34:22;;;;;;;;;;;;;;;25.71;38.71;95541.06;4997619;28;9039;-67
2023/02/03 04:36:48;;;;;;;;;;;;;;;25.72;38.55;95536.31;5011309;28;7018;-63
2023/02/03 04:39:30;;;;;;;;;;;;;;;25.72;38.08;95545.34;5008093;28;8965;-62
2023/02/03 04:42:07;;;;;;;;;;;;;;;25.73;38.13;95541.34;5010515;28;7233;-62
2023/02/03 04:44:45;;;;;;;;;;;;;;;25.69;38.68;95538.03;5010282;28;7302;-62
2023/02/03 04:47:27;;;;;;;;;;;;;;;25.70;38.14;95536.81;5010383;28;7382;-63
2023/02/03 04:49:55;;;;;;;;;;;;;;;25.73;38.99;95548.88;5006879;28;7457;-63
2023/02/03 04:52:23;;;;;;;;;;;;;;;25.72;38.22;95561.88;4995980;28;9093;-62
2023/02/03 04:54:52;;;;;;;;;;;;;;;25.71;38.09;95554.84;5005762;28;7357;-62
2023/02/03 04:57:28;;;;;;;;;;;;;;;25.69;38.26;95546.31;5011779;28;9059;-62
2023/02/03 04:59:54;;;;;;;;;;;;;;;25.72;38.15;95528.06;5007071;28;8618;-62
2023/02/03 05:02:20;;;;;;;;;;;;;;;25.68;38.63;95516.50;4978821;28;9251;-63
2023/02/03 05:04:46;;;;;;;;;;;;;;;25.69;38.41;95515.22;5007701;28;9298;-62
2023/02/03 05:07:12;;;;;;;;;;;;;;;25.70;38.43;95527.78;4999780;28;7267;-58
2023/02/03 05:09:40;;;;;;;;;;;;;;;25.70;38.66;95550.59;5006723;28;9562;-58
2023/02/03 05:12:27;;;;;;;;;;;;;;;25.71;38.24;95551.34;5010768;28;9464;-58
2023/02/03 05:14:57;;;;;;;;;;;;;;;25.71;38.76;95567.88;5010284;28;7360;-57
2023/02/03 05:17:26;;;;;;;;;;;;;;;25.71;38.24;95576.88;5006734;28;9023;-57
2023/02/03 05:19:56;;;;;;;;;;;;;;;25.71;38.12;95582.41;5013127;28;8378;-57
2023/02/03 05:22:24;;;;;;;;;;;;;;;25.70;38.47;95585.66;4994775;28;9346;-57
2023/02/03 05:24:51;;;;;;;;;;;;;;;25.71;38.17;95593.41;5013292;28;7061;-57
2023/02/03 05:27:17;;;;;;;;;;;;;;;25.70;38.59;95597.44;5004447;28;9319;-63
2023/02/03 05:29:43;;;;;;;;;;;;;;;25.71;38.36;95609.97;5012752;28;9018;-63
2023/02/03 05:32:09;;;;;;;;;;;;;;;25.70;38.88;95619.47;5007288;28;8436;-62
2023/02/03 05:35:07;;;;;;;;;;;;;;;25.72;38.39;95624.50;5020467;28;7174;-62
2023/02/03 05:38:13;;;;;;;;;;;;;;;25.69;38.01;95626.22;4983980;28;9076;-62
2023/02/03 05:43:37;;;;;;;;;;;;;;;25.68;38.79;95627.47;4970919;28;8728;-62
2023/02/03 05:46:25;;;;;;;;;;;;;;;25.71;38.05;95612.72;4963413;28;7926;-63
2023/02/03 05:49:16;;;;;;;;;;;;;;;25.73;38.40;95609.50;4986660;28;7885;-57
2023/02/03 05:51:43;;;;;;;;;;;;;;;25.71;38.81;95609.97;4988429;28;8834;-57
2023/02/03 05:54:13;;;;;;;;;;;;;;;25.69;38.49;95595.91;4954613;28;7036;-57
2023/02/03 05:57:14;;;;;;;;;;;;;;;25.70;38.15;95611.22;4988346;28;7256;-57
2023/02/03 05:59:56;;;;;;;;;;;;;;;25.70;39.27;95615.97;4985594;28;7004;-57
2023/02/03 06:02:42;;;;;;;;;;;;;;;25.74;39.08;95617.28;4982575;28;7277;-57
2023/02/03 06:05:43;;;;;;;;;;;;;;;25.76;39.27;95633.31;4972077;28;9757;-57
2023/02/03 06:08:11;;;;;;;;;;;;;;;25.71;39.10;95645.78;4965298;28;9624;-57
2023/02/03 06:10:58;;;;;;;;;;;;;;;25.71;38.63;95640.25;4983465;28;7080;-57
2023/02/03 06:17:02;;;;;;;;;;;;;;;25.73;39.36;95642.56;4984478;28;7269;-57
2023/02/03 06:19:28;;;;;;;;;;;;;;;25.69;39.54;95637.25;4966013;28;9061;-57
2023/02/03 06:21:54;;;;;;;;;;;;;;;25.68;38.72;95632.22;4969534;28;7003;-57
2023/02/03 06:24:43;;;;;;;;;;;;;;;25.70;39.59;95638.75;4987967;28;7330;-57
2023/02/03 06:27:09;;;;;;;;;;;;;;;25.71;39.48;95620.25;4960959;28;9141;-57
2023/02/03 06:29:35;;;;;;;;;;;;;;;25.71;38.77;95604.44;4977217;28;7223;-57
2023/02/03 06:32:01;;;;;;;;;;;;;;;25.71;38.68;95590.66;4974983;28;7038;-57
2023/02/03 06:34:58;;;;;;;;;;;;;;;25.71;38.72;95587.91;4991626;28;9128;-57
2023/02/03 06:37:36;;;;;;;;;;;;;;;25.70;38.63;95582.88;4965675;28;7216;-67
2023/02/03 06:40:22;;;;;;;;;;;;;;;25.75;38.51;95590.47;4972768;28;7154;-67
2023/02/03 06:42:49;;;;;;;;;;;;;;;25.82;38.34;95571.50;4958690;28;9093;-66
2023/02/03 06:45:16;;;;;;;;;;;;;;;25.82;38.06;95563.25;4955147;28;9352;-66
2023/02/03 06:47:44;;;;;;;;;;;;;;;25.81;38.31;95572.75;4975579;28;9501;-66
2023/02/03 06:50:14;;;;;;;;;;;;;;;25.81;38.78;95594.03;4955862;28;9237;-67
2023/02/03 06:52:50;;;;;;;;;;;;;;;25.80;37.99;95598.78;4966681;28;8244;-67
2023/02/03 06:55:16;;;;;;;;;;;;;;;25.81;38.24;95600.31;4951221;28;7269;-66
2023/02/03 06:57:45;;;;;;;;;;;;;;;25.82;38.63;95612.84;4947226;28;7298;-65
2023/02/03 07:00:17;;;;;;;;;;;;;;;25.87;38.30;95625.19;4960264;28;9071;-66
2023/02/03 07:02:43;;;;;;;;;;;;;;;25.93;38.52;95634.28;4948838;28;8056;-67
2023/02/03 07:05:10;;;;;;;;;;;;;;;25.96;37.99;95647.09;4946005;28;7112;-67
2023/02/03 07:07:38;;;;;;;;;;;;;;;25.97;37.79;95643.84;4960707;28;8798;-67
2023/02/03 07:10:09;;;;;;;;;;;;;;;25.96;38.06;95647.88;4940926;28;7992;-67
2023/02/03 07:12:36;;;;;;;;;;;;;;;25.98;37.69;95652.88;4943752;28;7036;-67
2023/02/03 07:15:05;;;;;;;;;;;;;;;25.97;38.37;95652.13;4993534;28;7335;-67
2023/02/03 07:17:32;;;;;;;;;;;;;;;26.03;37.56;95650.19;5003141;28;8192;-67
2023/02/03 07:20:02;;;;;;;;;;;;;;;26.03;37.66;95652.94;5011706;28;7029;-67
2023/02/03 07:22:29;;;;;;;;;;;;;;;26.02;37.84;95645.91;5004994;28;7228;-62
2023/02/03 07:24:58;;;;;;;;;;;;;;;26.01;37.69;95654.69;4997247;28;7054;-62
2023/02/03 07:27:26;;;;;;;;;;;;;;;26.05;37.82;95653.25;4988679;28;7068;-62
2023/02/03 07:29:52;;;;;;;;;;;;;;;26.04;37.71;95661.97;4995812;28;7253;-62
2023/02/03 07:32:20;;;;;;;;;;;;;;;26.09;37.75;95686.91;4996337;28;9246;-62
2023/02/03 07:34:49;;;;;;;;;;;;;;;26.12;37.46;95702.47;4990945;28;7210;-62
2023/02/03 07:37:15;;;;;;;;;;;;;;;26.11;37.45;95695.44;5001999;28;8957;-62
2023/02/03 07:39:43;;;;;;;;;;;;;;;26.11;37.52;95695.44;4998178;28;7128;-62
2023/02/03 07:42:10;;;;;;;;;;;;;;;26.13;37.59;95676.41;4992581;28;7032;-62
2023/02/03 07:44:36;;;;;;;;;;;;;;;26.12;38.04;95663.13;4990304;28;7282;-62
2023/02/03 07:47:16;;;;;;;;;;;;;;;26.16;38.43;95664.41;5015513;28;7012;-61
2023/02/03 07:49:49;;;;;;;;;;;;;;;26.16;37.95;95689.22;5000335;28;9026;-62
2023/02/03 07:52:23;;;;;;;;;;;;;;;26.19;37.51;95700.56;5002188;28;8926;-62
2023/02/03 07:55:21;;;;;;;;;;;;;;;26.21;37.52;95704.31;5001315;28;7312;-62
2023/02/03 07:57:56;;;;;;;;;;;;;;;26.20;37.40;95702.06;5004735;28;7293;-62
2023/02/03 08:00:49;;;;;;;;;;;;;;;26.22;37.95;95705.09;5002844;28;9359;-62
2023/02/03 08:03:56;;;;;;;;;;;;;;;26.24;38.03;95702.59;4961920;28;7301;-62
2023/02/03 08:06:59;;;;;;;;;;;;;;;26.23;37.54;95692.81;4957280;28;8712;-62
2023/02/03 08:09:36;;;;;;;;;;;;;;;26.22;37.48;95691.28;4965580;28;7520;-62
2023/02/03 08:12:12;;;;;;;;;;;;;;;26.21;37.76;95676.00;4950930;28;7713;-62
2023/02/03 08:15:13;;;;;;;;;;;;;;;26.17;38.01;95674.19;4962317;28;9023;-62
2023/02/03 08:17:59;;;;;;;;;;;;;;;26.09;37.71;95686.91;4876267;29;7374;-68
2023/02/03 08:20:48;;;;;;;;;;;;;;;26.02;37.90;95703.81;4888866;29;7078;-67
2023/02/03 08:23:42;;;;;;;;;;;;;;;25.98;38.61;95692.25;4892024;29;7310;-67
2023/02/03 08:26:08;;;;;;;;;;;;;;;25.95;38.66;95676.66;4880723;29;8656;-66
2023/02/03 08:28:36;;;;;;;;;;;;;;;25.92;38.54;95663.84;4892118;29;8997;-66
2023/02/03 08:31:11;;;;;;;;;;;;;;;25.90;38.22;95663.56;4891233;29;7165;-67
2023/02/03 08:33:37;;;;;;;;;;;;;;;25.89;39.41;95656.53;4891818;29;9088;-67
2023/02/03 08:36:04;;;;;;;;;;;;;;;25.87;38.86;95650.75;4889088;29;7262;-67
2023/02/03 08:38:48;;;;;;;;;;;;;;;25.88;39.85;95648.75;4896804;29;9013;-67
2023/02/03 08:42:02;;;;;;;;;;;;;;;25.86;40.06;95645.72;4931368;29;7644;-67
2023/02/03 08:45:08;;;;;;;;;;;;;;;25.85;40.15;95644.22;4941014;29;7275;-67
2023/02/03 08:47:38;;;;;;;;;;;;;;;25.85;39.77;95630.41;4929430;28;9071;-67
2023/02/03 08:50:06;;;;;;;;;;;;;;;25.84;39.30;95632.41;4932618;28;7012;-66
2023/02/03 08:52:34;;;;;;;;;;;;;;;25.82;39.83;95623.88;4996367;28;7090;-57
2023/02/03 08:55:13;;;;;;;;;;;;;;;25.86;39.49;95627.19;4999851;28;8221;-58
2023/02/03 08:57:45;;;;;;;;;;;;;;;25.82;39.04;95618.38;5008724;28;7245;-57
2023/02/03 09:00:41;;;;;;;;;;;;;;;25.86;38.85;95632.69;5017762;28;7449;-57
2023/02/03 09:03:07;;;;;;;;;;;;;;;25.86;39.18;95616.16;4982229;28;9315;-57
2023/02/03 09:05:50;;;;;;;;;;;;;;;25.88;38.87;95621.19;4989820;28;7265;-57
2023/02/03 09:08:21;;;;;;;;;;;;;;;25.88;39.51;95629.47;4967135;28;9038;-57
2023/02/03 09:11:00;;;;;;;;;;;;;;;25.88;41.88;95638.47;4990759;28;8927;-57
2023/02/03 09:13:57;;;;;;;;;;;;;;;25.94;40.39;95663.38;4985581;28;7026;-57
2023/02/03 09:16:41;;;;;;;;;;;;;;;25.94;40.99;95677.16;4991756;28;8765;-57
2023/02/03 09:19:25;;;;;;;;;;;;;;;25.97;40.33;95673.41;4969881;28;8840;-57
2023/02/03 09:22:24;;;;;;;;;;;;;;;25.97;40.05;95678.91;4982406;28;7250;-57
2023/02/03 09:24:55;;;;;;;;;;;;;;;26.03;39.73;95671.50;4899897;29;9374;-57
2023/02/03 09:27:21;;;;;;;;;;;;;;;26.03;39.15;95657.72;4899209;29;7727;-57
2023/02/03 09:29:50;;;;;;;;;;;;;;;26.01;40.06;95658.19;4914124;29;7091;-58
2023/02/03 09:32:18;;;;;;;;;;;;;;;25.98;40.03;95659.16;4898190;29;7958;-58
2023/02/03 09:35:08;;;;;;;;;;;;;;;25.98;40.07;95650.91;4894393;29;7009;-57
2023/02/03 09:37:35;;;;;;;;;;;;;;;25.94;39.60;95644.84;4928351;29;8725;-57
2023/02/03 09:40:25;;;;;;;;;;;;;;;25.94;40.81;95647.59;4922235;29;7028;-57
2023/02/03 09:43:06;;;;;;;;;;;;;;;25.95;40.09;95645.56;4947426;28;7262;-57
2023/02/03 09:45:34;;;;;;;;;;;;;;;25.95;40.14;95654.59;4943947;28;7509;-57
2023/02/03 09:48:40;;;;;;;;;;;;;;;25.97;39.28;95671.41;4937141;28;7038;-57
2023/02/03 09:51:33;;;;;;;;;;;;;;;25.97;40.09;95657.63;4888138;29;7023;-57
2023/02/03 09:54:18;;;;;;;;;;;;;;;25.97;39.22;95646.59;4891251;29;7224;-57
2023/02/03 09:56:51;;;;;;;;;;;;;;;25.99;39.68;95635.84;4872315;29;8852;-57
2023/02/03 09:59:21;;;;;;;;;;;;;;;25.97;39.87;95632.06;4890208;29;7044;-57
2023/02/03 10:02:21;;;;;;;;;;;;;;;25.96;39.30;95622.28;4935852;28;7164;-63
2023/02/03 10:05:12;;;;;;;;;;;;;;;25.99;39.65;95616.56;4923916;28;7038;-62
2023/02/03 10:07:58;;;;;;;;;;;;;;;26.02;39.96;95631.38;4924421;29;7206;-62
2023/02/03 10:11:08;;;;;;;;;;;;;;;26.02;39.21;95634.13;4947199;28;7261;-62
2023/02/03 10:13:56;;;;;;;;;;;;;;;26.01;40.24;95636.13;4937644;28;7145;-62
2023/02/03 10:16:46;;;;;;;;;;;;;;;26.03;39.31;95627.38;4929477;28;8897;-62
2023/02/03 10:19:21;;;;;;;;;;;;;;;26.05;40.15;95633.19;4933403;28;9087;-62
2023/02/03 10:21:54;;;;;;;;;;;;;;;26.07;39.93;95630.69;4923648;28;7366;-62
2023/02/03 10:24:34;;;;;;;;;;;;;;;26.09;39.74;95633.75;4933302;28;9190;-62
2023/02/03 10:27:00;;;;;;;;;;;;;;;26.10;39.74;95626.97;5004867;28;7274;-62
2023/02/03 10:29:37;;;;;;;;;;;;;;;26.10;39.56;95635.25;4998433;28;7033;-62
2023/02/03 10:32:11;;;;;;;;;;;;;;;26.12;39.98;95643.81;4997507;28;7011;-62
2023/02/03 10:35:10;;;;;;;;;;;;;;;26.11;39.82;95640.31;4997246;28;8950;-62
2023/02/03 10:37:48;;;;;;;;;;;;;;;26.10;40.91;95635.25;4986217;28;9487;-62
2023/02/03 10:40:25;;;;;;;;;;;;;;;26.09;40.96;95626.25;4985489;28;7363;-62
2023/02/03 10:45:58;;;;;;;;;;;;;;;26.12;40.33;95630.78;4983069;28;7540;-62
2023/02/03 10:48:34;;;;;;;;;;;;;;;26.19;39.85;95632.34;4981865;28;8705;-62
2023/02/03 10:54:35;;;;;;;;;;;;;;;26.18;39.53;95617.06;4987562;28;7302;-62
2023/02/03 10:57:11;;;;;;;;;;;;;;;26.14;39.58;95611.72;4985043;28;8701;-62
2023/02/03 10:59:48;;;;;;;;;;;;;;;26.13;40.27;95604.72;4981916;28;7047;-62
2023/02/03 11:02:29;;;;;;;;;;;;;;;26.15;39.94;95606.97;4967622;28;7280;-62
2023/02/03 11:05:33;;;;;;;;;;;;;;;26.13;40.07;95601.97;4982291;28;9051;-62
2023/02/03 11:08:38;;;;;;;;;;;;;;;26.16;39.94;95614.75;4909755;29;7343;-62
2023/02/03 11:11:12;;;;;;;;;;;;;;;26.16;39.85;95619.53;4895151;29;9184;-62
2023/02/03 11:13:39;;;;;;;;;;;;;;;26.19;39.60;95612.31;4887487;29;9025;-62
2023/02/03 11:16:19;;;;;;;;;;;;;;;26.19;39.56;95610.28;4923255;29;9515;-62
2023/02/03 11:18:57;;;;;;;;;;;;;;;26.23;39.85;95608.06;4919996;29;7132;-62
2023/02/03 11:21:26;;;;;;;;;;;;;;;26.22;39.61;95603.03;4929226;28;7052;-62
2023/02/03 11:24:17;;;;;;;;;;;;;;;26.27;40.10;95610.63;4933615;28;8634;-62
2023/02/03 11:27:05;;;;;;;;;;;;;;;26.29;39.48;95597.09;4904022;29;7016;-62
2023/02/03 11:29:35;;;;;;;;;;;;;;;26.30;39.86;95588.34;4932340;28;9037;-62
2023/02/03 11:32:24;;;;;;;;;;;;;;;26.29;40.02;95578.56;4919548;29;7147;-66
2023/02/03 11:35:22;;;;;;;;;;;;;;;26.30;39.32;95573.78;4914187;29;7322;-65
2023/02/03 11:37:55;;;;;;;;;;;;;;;26.30;39.32;95577.31;4909865;29;7302;-62
2023/02/03 11:40:32;;;;;;;;;;;;;;;26.32;39.58;95582.34;4895946;29;7248;-62
2023/02/03 11:43:02;;;;;;;;;;;;;;;26.36;39.32;95577.38;4991702;28;9399;-63
2023/02/03 11:45:41;;;;;;;;;;;;;;;26.39;39.63;95584.66;5006350;28;8014;-63
2023/02/03 11:48:12;;;;;;;;;;;;;;;26.43;39.65;95587.94;4996244;28;7630;-63
2023/02/03 11:50:46;;;;;;;;;;;;;;;26.48;39.64;95592.75;5010308;28;7055;-62
2023/02/03 11:53:50;;;;;;;;;;;;;;;26.50;39.66;95587.50;5005000;28;7245;-67
2023/02/03 11:56:53;;;;;;;;;;;;;;;26.53;39.58;95595.59;4994684;28;7266;-67
2023/02/03 11:59:56;;;;;;;;;;;;;;;26.56;39.49;95607.63;5004994;28;6982;-66
2023/02/03 12:03:12;;;;;;;;;;;;;;;26.57;39.33;95614.69;4990899;28;7171;-67
2023/02/03 12:05:57;;;;;;;;;;;;;;;26.59;38.75;95606.66;4998660;28;7523;-67
2023/02/03 12:08:52;;;;;;;;;;;;;;;26.62;38.68;95586.38;5000610;28;7409;-67
2023/02/03 12:11:56;;;;;;;;;;;;;;;26.63;38.62;95572.09;5002017;28;7490;-67
2023/02/03 12:14:40;;;;;;;;;;;;;;;26.61;38.88;95554.50;4990514;28;7045;-67
2023/02/03 12:17:25;;;;;;;;;;;;;;;26.55;38.15;95559.22;4990289;28;7064;-66
2023/02/03 12:20:10;;;;;;;;;;;;;;;26.25;31.38;95569.75;5004935;28;8074;-66
2023/02/03 12:23:13;;;;;;;;;;;;;;;25.49;25.83;95560.09;4975560;28;9343;-66
2023/02/03 12:26:11;;;;;;;;;;;;;;;24.92;26.52;95575.56;4995079;28;8827;-67
2023/02/03 12:29:01;;;;;;;;;;;;;;;24.87;25.06;95563.22;4992291;28;8074;-67
2023/02/03 12:31:45;;;;;;;;;;;;;;;24.96;25.40;95552.09;4995442;28;9082;-67
2023/02/03 12:34:29;;;;;;;;;;;;;;;25.13;25.68;95557.84;5003018;28;8988;-67
2023/02/03 12:37:18;;;;;;;;;;;;;;;25.23;26.28;95564.72;5013491;28;8874;-63
2023/02/03 12:40:03;;;;;;;;;;;;;;;25.36;26.47;95562.38;5000504;28;7273;-62
2023/02/03 12:42:43;;;;;;;;;;;;;;;25.42;27.28;95563.28;5013922;28;8786;-62
2023/02/03 12:45:28;;;;;;;;;;;;;;;25.48;27.33;95563.31;5002371;28;8344;-62
2023/02/03 12:48:10;;;;;;;;;;;;;;;25.52;28.34;95556.38;4994081;28;7031;-67
2023/02/03 12:50:49;;;;;;;;;;;;;;;25.57;28.85;95569.47;4997456;28;9028;-69
2023/02/03 12:53:21;;;;;;;;;;;;;;;25.64;28.45;95557.28;4998510;28;9801;-69
2023/02/03 12:56:03;;;;;;;;;;;;;;;25.68;29.08;95549.56;5000302;28;9000;-68
2023/02/03 13:02:21;;;;;;;;;;;;;;;25.74;29.47;95537.34;4949444;28;8791;-62
2023/02/03 13:05:07;;;;;;;;;;;;;;;25.76;29.53;95521.09;4932546;28;7312;-62
2023/02/03 13:08:05;;;;;;;;;;;;;;;25.80;29.53;95515.34;4942939;28;7337;-62
2023/02/03 13:10:43;;;;;;;;;;;;;;;25.85;30.05;95509.91;4944975;28;7420;-62
2023/02/03 13:13:20;;;;;;;;;;;;;;;25.91;30.25;95505.22;4935985;28;9363;-68
2023/02/03 13:16:07;;;;;;;;;;;;;;;25.93;30.75;95502.72;4935388;28;8804;-67
2023/02/03 13:18:45;;;;;;;;;;;;;;;25.90;30.63;95487.16;4946078;28;7157;-57
2023/02/03 13:21:22;;;;;;;;;;;;;;;25.87;30.57;95488.13;4935765;28;7310;-57
2023/02/03 13:24:17;;;;;;;;;;;;;;;25.89;30.43;95482.13;4944452;28;7034;-64
2023/02/03 13:27:17;;;;;;;;;;;;;;;25.88;30.87;95466.84;4869096;29;9241;-65
2023/02/03 13:30:04;;;;;;;;;;;;;;;25.89;30.88;95468.34;4874598;29;9330;-62
2023/02/03 13:32:39;;;;;;;;;;;;;;;25.88;30.96;95473.09;4870076;29;7314;-65
2023/02/03 13:35:44;;;;;;;;;;;;;;;25.89;31.82;95468.34;4874304;29;9554;-64
2023/02/03 13:38:33;;;;;;;;;;;;;;;25.89;31.36;95469.09;4889970;28;8950;-65
2023/02/03 13:41:10;;;;;;;;;;;;;;;25.92;31.19;95478.41;4939597;28;7060;-64
2023/02/03 13:44:32;;;;;;;;;;;;;;;25.92;31.44;95481.94;4950321;28;7003;-64
2023/02/03 13:47:31;;;;;;;;;;;;;;;25.95;31.65;95477.41;4949726;28;7060;-65
2023/02/03 13:50:21;;;;;;;;;;;;;;;25.94;31.91;95475.91;4914941;29;9843;-65
2023/02/03 13:53:20;;;;;;;;;;;;;;;25.95;31.88;95467.16;4932921;29;9123;-64
2023/02/03 13:56:15;;;;;;;;;;;;;;;25.94;32.45;95440.84;4879337;29;8770;-65
2023/02/03 13:58:59;;;;;;;;;;;;;;;25.96;31.97;95449.38;4896215;29;7218;-65
2023/02/03 14:01:45;;;;;;;;;;;;;;;25.96;32.44;95443.09;4877025;29;8868;-65
2023/02/03 14:04:23;;;;;;;;;;;;;;;25.99;31.97;95451.16;4887728;29;9475;-65
2023/02/03 14:07:34;;;;;;;;;;;;;;;25.99;32.75;95429.09;4879538;29;9412;-65
2023/02/03 14:10:14;;;;;;;;;;;;;;;26.02;32.92;95444.66;4879389;29;8843;-65
2023/02/03 14:13:19;;;;;;;;;;;;;;;26.00;32.19;95460.94;4892626;29;9079;-57
2023/02/03 14:16:25;;;;;;;;;;;;;;;26.01;32.97;95478.97;4894226;29;8936;-57
2023/02/03 14:18:55;;;;;;;;;;;;;;;26.00;33.04;95480.25;4884346;29;7636;-57
2023/02/03 14:21:45;;;;;;;;;;;;;;;26.01;32.78;95478.97;4877081;29;9183;-57